createdAt,value
2019-02-16T00:02:00.041Z,72.20
2019-02-16T00:07:03.709Z,74.00
2019-02-16T00:12:07.926Z,74.70
2019-02-16T00:17:11.858Z,73.90
2019-02-16T00:22:15.887Z,73.10
2019-02-16T00:27:19.774Z,72.40
2019-02-16T00:32:23.357Z,70.40
2019-02-16T00:37:26.953Z,70.70
2019-02-16T00:42:30.548Z,70.50
2019-02-16T00:47:34.129Z,71.00
2019-02-16T00:52:37.784Z,72.90
2019-02-16T00:57:41.369Z,74.50
2019-02-16T01:02:45.022Z,75.60
2019-02-16T01:07:48.927Z,75.50
2019-02-16T01:12:52.514Z,73.40
2019-02-16T01:17:56.411Z,74.70
2019-02-16T01:23:00.310Z,75.20
2019-02-16T01:28:03.901Z,76.60
2019-02-16T01:33:07.489Z,75.50
2019-02-16T01:38:11.061Z,75.10
2019-02-16T01:43:15.069Z,76.10
2019-02-16T01:48:18.672Z,76.80
2019-02-16T01:53:22.258Z,76.60
2019-02-16T01:58:25.837Z,76.40
2019-02-16T02:03:29.431Z,76.20
2019-02-16T02:08:33.017Z,76.20
2019-02-16T02:13:36.606Z,74.90
2019-02-16T02:18:40.182Z,75.80
2019-02-16T02:23:43.769Z,74.70
2019-02-16T02:28:47.343Z,75.40
2019-02-16T02:33:50.937Z,74.60
2019-02-16T02:38:54.525Z,73.80
2019-02-16T02:43:58.099Z,75.70
2019-02-16T02:49:01.682Z,76.20
2019-02-16T02:54:05.340Z,77.80
2019-02-16T02:59:08.925Z,76.30
2019-02-16T03:04:12.862Z,76.10
2019-02-16T03:09:16.788Z,77.00
2019-02-16T03:14:20.814Z,77.70
2019-02-16T03:19:24.474Z,78.70
2019-02-16T03:24:28.058Z,77.80
2019-02-16T03:29:46.595Z,77.80
2019-02-16T03:35:01.973Z,78.30
2019-02-16T03:40:08.669Z,76.70
2019-02-16T03:45:12.398Z,76.70
2019-02-16T03:50:15.990Z,76.50
2019-02-16T03:55:19.977Z,76.80
2019-02-16T04:00:24.025Z,77.50
2019-02-16T04:05:27.941Z,77.60
2019-02-16T04:10:31.577Z,78.20
2019-02-16T04:15:35.199Z,77.50
2019-02-16T04:20:38.774Z,77.70
2019-02-16T04:25:42.369Z,78.40
2019-02-16T04:30:46.330Z,78.00
2019-02-16T04:35:49.930Z,77.30
2019-02-16T04:40:53.514Z,78.40
2019-02-16T04:45:57.101Z,78.30
2019-02-16T04:51:00.699Z,77.90
2019-02-16T04:56:04.274Z,79.10
2019-02-16T05:01:07.863Z,78.40
2019-02-16T05:06:11.467Z,78.90
2019-02-16T05:11:15.437Z,77.80
2019-02-16T05:16:19.016Z,77.50
2019-02-16T05:21:22.597Z,77.00
2019-02-16T05:26:26.190Z,76.90
2019-02-16T05:31:29.775Z,77.50
2019-02-16T05:36:33.354Z,77.90
2019-02-16T05:41:36.939Z,77.30
2019-02-16T05:46:40.595Z,77.70
2019-02-16T05:51:44.178Z,76.70
2019-02-16T05:56:47.871Z,75.40
2019-02-16T06:01:54.282Z,76.10
2019-02-16T06:06:57.383Z,76.30
2019-02-16T06:12:00.975Z,76.90
2019-02-16T06:17:04.567Z,76.40
2019-02-16T06:22:08.149Z,75.70
2019-02-16T06:27:12.097Z,75.60
2019-02-16T06:32:16.038Z,74.80
2019-02-16T06:37:21.262Z,75.60
2019-02-16T06:42:25.241Z,76.10
2019-02-16T06:47:28.830Z,76.40
2019-02-16T06:52:32.692Z,76.50
2019-02-16T06:57:36.261Z,77.00
2019-02-16T07:02:39.845Z,76.50
2019-02-16T07:07:43.429Z,75.20
2019-02-16T07:12:47.097Z,75.80
2019-02-16T07:17:52.313Z,76.20
2019-02-16T07:22:55.909Z,74.90
2019-02-16T07:27:59.490Z,75.70
2019-02-16T07:33:03.146Z,76.00
2019-02-16T07:38:07.139Z,75.70
2019-02-16T07:43:12.375Z,75.80
2019-02-16T07:48:17.598Z,76.10
2019-02-16T07:53:30.976Z,76.70
2019-02-16T07:58:32.485Z,75.10
2019-02-16T08:03:38.042Z,75.30
2019-02-16T08:08:43.681Z,76.20
2019-02-16T08:14:05.187Z,76.40
2019-02-16T08:19:10.816Z,73.00
2019-02-16T08:24:31.621Z,68.40
2019-02-16T08:29:39.529Z,64.20
2019-02-16T08:34:56.886Z,59.60
2019-02-16T08:40:04.861Z,56.90
2019-02-16T08:45:16.037Z,54.20
2019-02-16T08:50:21.747Z,52.10
2019-02-16T08:55:26.972Z,52.70
2019-02-16T09:00:35.459Z,48.80
2019-02-16T09:05:43.575Z,46.00
2019-02-16T09:10:48.806Z,46.80
2019-02-16T09:15:54.417Z,46.00
2019-02-16T09:20:59.717Z,42.60
2019-02-16T09:26:17.208Z,41.00
2019-02-16T09:31:22.455Z,40.00
2019-02-16T09:36:30.673Z,38.20
2019-02-16T09:41:36.221Z,36.10
2019-02-16T09:46:44.462Z,35.50
2019-02-16T09:51:58.570Z,34.70
2019-02-16T09:57:04.157Z,32.10
2019-02-16T10:02:12.279Z,31.10
2019-02-16T10:07:17.868Z,29.00
2019-02-16T10:12:41.386Z,29.20
2019-02-16T10:17:55.734Z,27.50
2019-02-16T10:23:00.959Z,25.90
2019-02-16T10:28:12.186Z,25.20
2019-02-16T10:33:17.426Z,26.30
2019-02-16T10:38:28.866Z,26.10
2019-02-16T10:43:42.864Z,26.00
2019-02-16T10:49:00.208Z,24.10
2019-02-16T10:54:05.510Z,23.90
2019-02-16T10:59:25.965Z,25.10
2019-02-16T11:04:37.961Z,25.10
2019-02-16T11:09:54.805Z,24.30
2019-02-16T11:15:05.635Z,25.40
2019-02-16T11:20:13.623Z,25.60
2019-02-16T11:25:24.894Z,26.30
2019-02-16T11:30:35.943Z,26.50
2019-02-16T11:35:41.188Z,27.40
2019-02-16T11:41:02.987Z,26.80
2019-02-16T11:46:20.166Z,26.50
2019-02-16T11:51:25.820Z,26.20
2019-02-16T11:56:31.400Z,26.70
2019-02-16T12:01:46.177Z,26.90
2019-02-16T12:06:54.324Z,26.90
2019-02-16T12:12:16.404Z,26.10
2019-02-16T12:17:21.701Z,24.30
2019-02-16T12:22:35.874Z,23.00
2019-02-16T12:27:44.289Z,23.30
2019-02-16T12:32:52.115Z,23.50
2019-02-16T12:38:00.089Z,21.90
2019-02-16T12:43:05.601Z,21.60
2019-02-16T12:48:22.864Z,21.90
2019-02-16T12:53:28.495Z,20.80
2019-02-16T12:58:42.530Z,19.90
2019-02-16T13:03:47.761Z,19.20
2019-02-16T13:08:53.007Z,19.20
2019-02-16T13:13:58.616Z,18.20
2019-02-16T13:19:07.044Z,17.90
2019-02-16T13:24:12.286Z,17.80
2019-02-16T13:29:20.329Z,16.60
2019-02-16T13:34:25.574Z,17.30
2019-02-16T13:39:42.791Z,16.70
2019-02-16T13:45:06.438Z,16.40
2019-02-16T13:50:26.887Z,17.00
2019-02-16T13:55:46.886Z,16.30
2019-02-16T14:00:58.335Z,17.20
2019-02-16T14:06:15.569Z,17.20
2019-02-16T14:11:23.553Z,16.70
2019-02-16T14:16:31.903Z,18.50
2019-02-16T14:21:35.805Z,17.90
2019-02-16T14:26:39.465Z,19.00
2019-02-16T14:31:43.059Z,18.40
2019-02-16T14:36:47.463Z,17.60
2019-02-16T14:41:51.046Z,18.10
2019-02-16T14:46:54.740Z,19.20
2019-02-16T14:51:58.338Z,19.40
2019-02-16T14:57:03.716Z,20.10
2019-02-16T15:02:07.564Z,20.10
2019-02-16T15:07:11.166Z,21.50
2019-02-16T15:12:15.552Z,21.40
2019-02-16T15:17:19.143Z,21.00
2019-02-16T15:22:22.733Z,21.60
2019-02-16T15:27:26.334Z,22.00
2019-02-16T15:32:30.349Z,22.20
2019-02-16T15:37:34.445Z,23.00
2019-02-16T15:42:38.147Z,23.60
2019-02-16T15:47:42.107Z,24.30
2019-02-16T15:52:45.764Z,25.40
2019-02-16T15:57:49.551Z,26.80
2019-02-16T16:02:53.167Z,31.80
2019-02-16T16:08:14.437Z,34.20
2019-02-16T16:13:19.665Z,35.80
2019-02-16T16:18:24.956Z,38.80
2019-02-16T16:23:37.933Z,42.20
2019-02-16T16:28:45.581Z,43.80
2019-02-16T16:33:57.118Z,45.30
2019-02-16T16:39:14.389Z,47.30
2019-02-16T16:44:25.843Z,48.70
2019-02-16T16:49:40.158Z,49.90
2019-02-16T16:54:48.146Z,50.60
2019-02-16T17:00:02.813Z,51.80
2019-02-16T17:05:18.153Z,53.40
2019-02-16T17:10:29.687Z,53.60
2019-02-16T17:15:35.248Z,53.70
2019-02-16T17:20:49.491Z,53.90
2019-02-16T17:25:57.861Z,54.10
2019-02-16T17:31:03.499Z,53.40
2019-02-16T17:36:08.726Z,53.20
2019-02-16T17:41:30.407Z,53.20
2019-02-16T17:46:44.468Z,52.50
2019-02-16T17:51:52.675Z,52.50
2019-02-16T17:56:58.233Z,53.80
2019-02-16T18:02:06.438Z,55.60
2019-02-16T18:07:21.163Z,54.50
2019-02-16T18:12:26.625Z,53.20
2019-02-16T18:17:41.777Z,53.40
2019-02-16T18:23:03.174Z,53.00
2019-02-16T18:33:33.471Z,52.70
2019-02-16T18:38:41.404Z,53.30
2019-02-16T18:43:52.679Z,53.30
2019-02-16T18:49:06.589Z,53.20
2019-02-16T18:54:26.771Z,54.50
2019-02-16T18:59:34.570Z,53.90
2019-02-16T19:04:48.782Z,54.20
2019-02-16T19:09:57.022Z,53.20
2019-02-16T19:15:02.245Z,52.30
2019-02-16T19:20:12.869Z,52.00
2019-02-16T19:25:18.093Z,50.90
2019-02-16T19:30:29.106Z,50.20
2019-02-16T19:35:34.340Z,53.30
2019-02-16T19:40:39.907Z,53.20
2019-02-16T19:45:45.412Z,52.90
2019-02-16T19:50:53.995Z,52.30
2019-02-16T19:56:04.994Z,51.40
2019-02-16T20:01:10.779Z,52.40
2019-02-16T20:06:18.733Z,52.80
2019-02-16T20:11:41.637Z,52.10
2019-02-16T20:16:47.173Z,52.00
2019-02-16T20:22:10.621Z,52.30
2019-02-16T20:27:37.263Z,52.90
2019-02-16T20:32:41.251Z,57.40
2019-02-16T20:37:46.556Z,59.00
2019-02-16T20:43:06.945Z,60.00
2019-02-16T20:48:24.478Z,58.50
2019-02-16T20:53:35.670Z,60.30
2019-02-16T20:58:43.741Z,62.10
2019-02-16T21:04:01.052Z,62.60
2019-02-16T21:09:08.322Z,62.20
2019-02-16T21:14:13.548Z,63.50
2019-02-16T21:19:21.511Z,61.90
2019-02-16T21:24:36.474Z,62.70
2019-02-16T21:29:47.444Z,62.80
2019-02-16T21:35:07.358Z,61.70
2019-02-16T21:40:29.193Z,61.40
2019-02-16T21:45:47.441Z,57.40
2019-02-16T21:50:58.545Z,59.20
2019-02-16T21:56:21.858Z,60.80
2019-02-16T22:01:32.875Z,61.90
2019-02-16T22:06:41.002Z,62.30
2019-02-16T22:11:49.282Z,63.30
2019-02-16T22:16:53.218Z,64.40
2019-02-16T22:21:57.118Z,64.20
2019-02-16T22:27:00.717Z,63.80
2019-02-16T22:32:04.310Z,64.30
2019-02-16T22:37:07.975Z,62.60
2019-02-16T22:42:11.574Z,61.80
2019-02-16T22:47:15.567Z,61.20
2019-02-16T22:52:19.150Z,59.10
2019-02-16T22:57:23.114Z,60.10
2019-02-16T23:02:27.059Z,60.60
2019-02-16T23:07:30.784Z,59.80
2019-02-16T23:12:34.527Z,61.20
2019-02-16T23:17:38.458Z,62.50
2019-02-16T23:22:42.127Z,61.60
2019-02-16T23:27:45.701Z,59.40
2019-02-16T23:32:49.295Z,59.80
2019-02-16T23:37:52.882Z,59.50
2019-02-16T23:42:56.479Z,59.40
2019-02-16T23:48:00.054Z,58.80
2019-02-16T23:53:03.647Z,57.40
2019-02-16T23:58:07.737Z,59.40
